sensor_id;sensor_type;location;lat;lon;timestamp;P1;durP1;ratioP1;P2;durP2;ratioP2
41293;SDS011;27037;52.010;4.446;2023-07-29T00:01:30;9.85;;;2.70;;
41293;SDS011;27037;52.010;4.446;2023-07-29T00:03:56;7.05;;;2.10;;
41293;SDS011;27037;52.010;4.446;2023-07-29T00:06:22;8.30;;;2.28;;
41293;SDS011;27037;52.010;4.446;2023-07-29T00:08:48;7.28;;;2.13;;
41293;SDS011;27037;52.010;4.446;2023-07-29T00:11:14;6.57;;;2.10;;
41293;SDS011;27037;52.010;4.446;2023-07-29T00:13:39;6.75;;;2.13;;
41293;SDS011;27037;52.010;4.446;2023-07-29T00:16:05;5.40;;;2.20;;
41293;SDS011;27037;52.010;4.446;2023-07-29T00:18:31;6.47;;;2.10;;
41293;SDS011;27037;52.010;4.446;2023-07-29T00:20:57;5.53;;;2.00;;
41293;SDS011;27037;52.010;4.446;2023-07-29T00:23:23;4.97;;;2.33;;
41293;SDS011;27037;52.010;4.446;2023-07-29T00:25:48;5.68;;;2.17;;
41293;SDS011;27037;52.010;4.446;2023-07-29T00:28:14;8.02;;;2.30;;
41293;SDS011;27037;52.010;4.446;2023-07-29T00:30:40;3.30;;;1.98;;
41293;SDS011;27037;52.010;4.446;2023-07-29T00:33:06;5.93;;;2.13;;
41293;SDS011;27037;52.010;4.446;2023-07-29T00:35:31;5.07;;;2.05;;
41293;SDS011;27037;52.010;4.446;2023-07-29T00:37:57;8.02;;;2.30;;
41293;SDS011;27037;52.010;4.446;2023-07-29T00:40:22;7.93;;;2.30;;
41293;SDS011;27037;52.010;4.446;2023-07-29T00:42:49;6.90;;;2.53;;
41293;SDS011;27037;52.010;4.446;2023-07-29T00:45:15;7.45;;;2.25;;
41293;SDS011;27037;52.010;4.446;2023-07-29T00:47:41;5.55;;;2.40;;
41293;SDS011;27037;52.010;4.446;2023-07-29T00:50:09;5.95;;;2.58;;
41293;SDS011;27037;52.010;4.446;2023-07-29T00:52:37;7.18;;;2.50;;
41293;SDS011;27037;52.010;4.446;2023-07-29T00:55:03;4.93;;;2.28;;
41293;SDS011;27037;52.010;4.446;2023-07-29T00:57:29;7.28;;;2.55;;
41293;SDS011;27037;52.010;4.446;2023-07-29T00:59:55;6.35;;;2.38;;
41293;SDS011;27037;52.010;4.446;2023-07-29T01:02:21;8.32;;;2.85;;
41293;SDS011;27037;52.010;4.446;2023-07-29T01:04:54;6.10;;;2.47;;
41293;SDS011;27037;52.010;4.446;2023-07-29T01:07:24;6.00;;;2.75;;
41293;SDS011;27037;52.010;4.446;2023-07-29T01:10:07;7.13;;;2.67;;
41293;SDS011;27037;52.010;4.446;2023-07-29T01:12:51;4.80;;;2.60;;
41293;SDS011;27037;52.010;4.446;2023-07-29T01:15:55;5.53;;;2.45;;
41293;SDS011;27037;52.010;4.446;2023-07-29T01:18:29;11.60;;;2.92;;
41293;SDS011;27037;52.010;4.446;2023-07-29T01:20:58;5.38;;;2.67;;
41293;SDS011;27037;52.010;4.446;2023-07-29T01:23:30;8.73;;;2.70;;
41293;SDS011;27037;52.010;4.446;2023-07-29T01:25:56;11.23;;;2.88;;
41293;SDS011;27037;52.010;4.446;2023-07-29T01:28:22;7.13;;;2.83;;
41293;SDS011;27037;52.010;4.446;2023-07-29T01:30:49;7.72;;;2.67;;
41293;SDS011;27037;52.010;4.446;2023-07-29T01:33:25;6.78;;;2.67;;
41293;SDS011;27037;52.010;4.446;2023-07-29T01:35:56;4.30;;;2.38;;
41293;SDS011;27037;52.010;4.446;2023-07-29T01:38:30;7.88;;;2.60;;
41293;SDS011;27037;52.010;4.446;2023-07-29T01:41:03;8.23;;;2.83;;
41293;SDS011;27037;52.010;4.446;2023-07-29T01:43:32;5.32;;;2.60;;
41293;SDS011;27037;52.010;4.446;2023-07-29T01:45:58;8.38;;;2.97;;
41293;SDS011;27037;52.010;4.446;2023-07-29T01:48:25;7.68;;;3.03;;
41293;SDS011;27037;52.010;4.446;2023-07-29T01:50:52;7.75;;;2.97;;
41293;SDS011;27037;52.010;4.446;2023-07-29T01:53:18;7.43;;;2.78;;
41293;SDS011;27037;52.010;4.446;2023-07-29T01:55:43;6.53;;;2.90;;
41293;SDS011;27037;52.010;4.446;2023-07-29T01:58:10;7.75;;;3.05;;
41293;SDS011;27037;52.010;4.446;2023-07-29T02:00:35;6.70;;;2.90;;
41293;SDS011;27037;52.010;4.446;2023-07-29T02:03:01;9.10;;;3.00;;
41293;SDS011;27037;52.010;4.446;2023-07-29T02:05:27;7.22;;;3.10;;
41293;SDS011;27037;52.010;4.446;2023-07-29T02:07:53;5.65;;;2.78;;
41293;SDS011;27037;52.010;4.446;2023-07-29T02:10:18;7.72;;;3.30;;
41293;SDS011;27037;52.010;4.446;2023-07-29T02:12:44;5.45;;;2.88;;
41293;SDS011;27037;52.010;4.446;2023-07-29T02:15:09;7.15;;;3.40;;
41293;SDS011;27037;52.010;4.446;2023-07-29T02:17:35;9.45;;;3.40;;
41293;SDS011;27037;52.010;4.446;2023-07-29T02:20:01;6.80;;;3.28;;
41293;SDS011;27037;52.010;4.446;2023-07-29T02:22:28;6.68;;;2.85;;
41293;SDS011;27037;52.010;4.446;2023-07-29T02:24:54;9.93;;;3.40;;
41293;SDS011;27037;52.010;4.446;2023-07-29T02:27:20;7.68;;;3.17;;
41293;SDS011;27037;52.010;4.446;2023-07-29T02:29:46;7.47;;;3.10;;
41293;SDS011;27037;52.010;4.446;2023-07-29T02:32:11;6.47;;;3.00;;
41293;SDS011;27037;52.010;4.446;2023-07-29T02:34:37;8.55;;;3.20;;
41293;SDS011;27037;52.010;4.446;2023-07-29T02:37:03;5.70;;;2.78;;
41293;SDS011;27037;52.010;4.446;2023-07-29T02:39:28;9.20;;;3.25;;
41293;SDS011;27037;52.010;4.446;2023-07-29T02:41:54;6.78;;;3.10;;
41293;SDS011;27037;52.010;4.446;2023-07-29T02:44:21;8.05;;;3.25;;
41293;SDS011;27037;52.010;4.446;2023-07-29T02:46:46;6.78;;;2.88;;
41293;SDS011;27037;52.010;4.446;2023-07-29T02:49:12;8.13;;;3.30;;
41293;SDS011;27037;52.010;4.446;2023-07-29T02:51:37;5.93;;;2.92;;
41293;SDS011;27037;52.010;4.446;2023-07-29T02:54:03;9.10;;;3.10;;
41293;SDS011;27037;52.010;4.446;2023-07-29T02:56:29;7.78;;;3.00;;
41293;SDS011;27037;52.010;4.446;2023-07-29T02:58:55;6.22;;;2.75;;
41293;SDS011;27037;52.010;4.446;2023-07-29T03:01:22;7.13;;;3.47;;
41293;SDS011;27037;52.010;4.446;2023-07-29T03:03:50;11.00;;;3.45;;
41293;SDS011;27037;52.010;4.446;2023-07-29T03:06:16;9.52;;;3.40;;
41293;SDS011;27037;52.010;4.446;2023-07-29T03:08:41;8.30;;;3.28;;
41293;SDS011;27037;52.010;4.446;2023-07-29T03:11:11;7.93;;;3.40;;
41293;SDS011;27037;52.010;4.446;2023-07-29T03:13:38;7.93;;;3.50;;
41293;SDS011;27037;52.010;4.446;2023-07-29T03:16:07;7.72;;;3.22;;
41293;SDS011;27037;52.010;4.446;2023-07-29T03:18:34;8.80;;;3.42;;
41293;SDS011;27037;52.010;4.446;2023-07-29T03:21:00;8.82;;;3.20;;
41293;SDS011;27037;52.010;4.446;2023-07-29T03:23:27;10.07;;;3.53;;
41293;SDS011;27037;52.010;4.446;2023-07-29T03:25:56;10.05;;;3.35;;
41293;SDS011;27037;52.010;4.446;2023-07-29T03:28:28;11.88;;;4.00;;
41293;SDS011;27037;52.010;4.446;2023-07-29T03:30:55;10.35;;;3.63;;
41293;SDS011;27037;52.010;4.446;2023-07-29T03:33:22;10.85;;;3.60;;
41293;SDS011;27037;52.010;4.446;2023-07-29T03:35:48;8.85;;;4.10;;
41293;SDS011;27037;52.010;4.446;2023-07-29T03:38:14;7.82;;;3.80;;
41293;SDS011;27037;52.010;4.446;2023-07-29T03:40:40;10.75;;;3.58;;
41293;SDS011;27037;52.010;4.446;2023-07-29T03:43:06;8.25;;;3.92;;
41293;SDS011;27037;52.010;4.446;2023-07-29T03:45:32;10.35;;;4.10;;
41293;SDS011;27037;52.010;4.446;2023-07-29T03:47:58;8.43;;;4.07;;
41293;SDS011;27037;52.010;4.446;2023-07-29T03:50:24;8.98;;;4.40;;
41293;SDS011;27037;52.010;4.446;2023-07-29T03:52:50;10.00;;;4.40;;
41293;SDS011;27037;52.010;4.446;2023-07-29T03:55:16;12.75;;;4.80;;
41293;SDS011;27037;52.010;4.446;2023-07-29T03:57:41;11.90;;;4.60;;
41293;SDS011;27037;52.010;4.446;2023-07-29T04:00:07;11.93;;;5.10;;
41293;SDS011;27037;52.010;4.446;2023-07-29T04:02:34;9.30;;;4.82;;
41293;SDS011;27037;52.010;4.446;2023-07-29T04:05:02;12.98;;;5.10;;
41293;SDS011;27037;52.010;4.446;2023-07-29T04:07:28;11.80;;;4.90;;
41293;SDS011;27037;52.010;4.446;2023-07-29T04:09:54;11.77;;;4.75;;
41293;SDS011;27037;52.010;4.446;2023-07-29T04:12:20;12.85;;;5.18;;
41293;SDS011;27037;52.010;4.446;2023-07-29T04:14:46;11.55;;;5.53;;
41293;SDS011;27037;52.010;4.446;2023-07-29T04:17:12;11.10;;;4.78;;
41293;SDS011;27037;52.010;4.446;2023-07-29T04:19:38;10.25;;;4.93;;
41293;SDS011;27037;52.010;4.446;2023-07-29T04:22:03;11.68;;;4.75;;
41293;SDS011;27037;52.010;4.446;2023-07-29T04:24:29;12.32;;;5.28;;
41293;SDS011;27037;52.010;4.446;2023-07-29T04:26:55;11.93;;;5.25;;
41293;SDS011;27037;52.010;4.446;2023-07-29T04:29:20;13.27;;;5.25;;
41293;SDS011;27037;52.010;4.446;2023-07-29T04:31:47;13.70;;;5.25;;
41293;SDS011;27037;52.010;4.446;2023-07-29T04:34:14;12.63;;;5.50;;
41293;SDS011;27037;52.010;4.446;2023-07-29T04:36:39;13.20;;;5.30;;
41293;SDS011;27037;52.010;4.446;2023-07-29T04:39:05;11.05;;;6.07;;
41293;SDS011;27037;52.010;4.446;2023-07-29T04:41:31;13.35;;;6.10;;
41293;SDS011;27037;52.010;4.446;2023-07-29T04:43:56;11.07;;;6.07;;
41293;SDS011;27037;52.010;4.446;2023-07-29T04:46:22;12.10;;;6.43;;
41293;SDS011;27037;52.010;4.446;2023-07-29T04:48:48;16.83;;;6.30;;
41293;SDS011;27037;52.010;4.446;2023-07-29T04:51:13;14.15;;;6.55;;
41293;SDS011;27037;52.010;4.446;2023-07-29T04:53:39;15.32;;;6.68;;
41293;SDS011;27037;52.010;4.446;2023-07-29T04:56:04;14.52;;;6.50;;
41293;SDS011;27037;52.010;4.446;2023-07-29T04:58:30;14.18;;;6.43;;
41293;SDS011;27037;52.010;4.446;2023-07-29T05:00:59;12.20;;;6.15;;
41293;SDS011;27037;52.010;4.446;2023-07-29T05:03:25;11.20;;;6.30;;
41293;SDS011;27037;52.010;4.446;2023-07-29T05:05:51;13.75;;;5.93;;
41293;SDS011;27037;52.010;4.446;2023-07-29T05:08:18;16.38;;;6.50;;
41293;SDS011;27037;52.010;4.446;2023-07-29T05:10:44;11.93;;;6.10;;
41293;SDS011;27037;52.010;4.446;2023-07-29T05:13:13;13.10;;;6.20;;
41293;SDS011;27037;52.010;4.446;2023-07-29T05:15:38;12.63;;;5.57;;
41293;SDS011;27037;52.010;4.446;2023-07-29T05:18:04;15.10;;;6.47;;
41293;SDS011;27037;52.010;4.446;2023-07-29T05:20:30;11.90;;;5.90;;
41293;SDS011;27037;52.010;4.446;2023-07-29T05:22:55;17.15;;;6.20;;
41293;SDS011;27037;52.010;4.446;2023-07-29T05:25:21;13.90;;;6.15;;
41293;SDS011;27037;52.010;4.446;2023-07-29T05:27:47;13.80;;;5.70;;
41293;SDS011;27037;52.010;4.446;2023-07-29T05:30:12;12.10;;;6.22;;
41293;SDS011;27037;52.010;4.446;2023-07-29T05:32:38;14.95;;;6.40;;
41293;SDS011;27037;52.010;4.446;2023-07-29T05:35:03;14.60;;;6.43;;
41293;SDS011;27037;52.010;4.446;2023-07-29T05:37:29;14.75;;;6.22;;
41293;SDS011;27037;52.010;4.446;2023-07-29T05:39:55;14.07;;;6.05;;
41293;SDS011;27037;52.010;4.446;2023-07-29T05:42:20;16.67;;;6.07;;
41293;SDS011;27037;52.010;4.446;2023-07-29T05:44:46;7.97;;;5.20;;
41293;SDS011;27037;52.010;4.446;2023-07-29T05:47:12;12.43;;;5.75;;
41293;SDS011;27037;52.010;4.446;2023-07-29T05:49:37;14.02;;;6.07;;
41293;SDS011;27037;52.010;4.446;2023-07-29T05:52:03;14.52;;;6.10;;
41293;SDS011;27037;52.010;4.446;2023-07-29T05:54:29;14.20;;;5.30;;
41293;SDS011;27037;52.010;4.446;2023-07-29T05:56:54;13.32;;;5.28;;
41293;SDS011;27037;52.010;4.446;2023-07-29T05:59:20;14.27;;;5.47;;
41293;SDS011;27037;52.010;4.446;2023-07-29T06:01:46;8.63;;;5.05;;
41293;SDS011;27037;52.010;4.446;2023-07-29T06:04:11;15.25;;;5.10;;
41293;SDS011;27037;52.010;4.446;2023-07-29T06:06:37;10.52;;;4.70;;
41293;SDS011;27037;52.010;4.446;2023-07-29T06:09:02;11.60;;;4.90;;
41293;SDS011;27037;52.010;4.446;2023-07-29T06:11:28;12.10;;;4.50;;
41293;SDS011;27037;52.010;4.446;2023-07-29T06:13:54;14.45;;;4.18;;
41293;SDS011;27037;52.010;4.446;2023-07-29T06:16:19;11.10;;;4.47;;
41293;SDS011;27037;52.010;4.446;2023-07-29T06:18:45;14.43;;;4.95;;
41293;SDS011;27037;52.010;4.446;2023-07-29T06:21:11;12.63;;;5.18;;
41293;SDS011;27037;52.010;4.446;2023-07-29T06:23:41;12.70;;;5.00;;
41293;SDS011;27037;52.010;4.446;2023-07-29T06:26:08;10.05;;;4.25;;
41293;SDS011;27037;52.010;4.446;2023-07-29T06:28:34;12.18;;;4.47;;
41293;SDS011;27037;52.010;4.446;2023-07-29T06:30:59;14.15;;;4.25;;
41293;SDS011;27037;52.010;4.446;2023-07-29T06:33:25;12.05;;;3.90;;
41293;SDS011;27037;52.010;4.446;2023-07-29T06:35:50;15.65;;;4.30;;
41293;SDS011;27037;52.010;4.446;2023-07-29T06:38:16;10.13;;;3.55;;
41293;SDS011;27037;52.010;4.446;2023-07-29T06:40:46;9.60;;;3.08;;
41293;SDS011;27037;52.010;4.446;2023-07-29T06:43:12;6.90;;;2.80;;
41293;SDS011;27037;52.010;4.446;2023-07-29T06:45:38;10.30;;;2.65;;
41293;SDS011;27037;52.010;4.446;2023-07-29T06:48:04;12.43;;;2.75;;
41293;SDS011;27037;52.010;4.446;2023-07-29T06:50:29;7.60;;;2.60;;
41293;SDS011;27037;52.010;4.446;2023-07-29T06:52:55;7.85;;;2.25;;
41293;SDS011;27037;52.010;4.446;2023-07-29T06:55:20;8.10;;;2.40;;
41293;SDS011;27037;52.010;4.446;2023-07-29T06:57:46;8.00;;;2.53;;
41293;SDS011;27037;52.010;4.446;2023-07-29T07:00:12;10.52;;;2.25;;
41293;SDS011;27037;52.010;4.446;2023-07-29T07:02:37;8.15;;;1.90;;
41293;SDS011;27037;52.010;4.446;2023-07-29T07:05:03;10.07;;;2.35;;
41293;SDS011;27037;52.010;4.446;2023-07-29T07:07:29;6.95;;;2.40;;
41293;SDS011;27037;52.010;4.446;2023-07-29T07:09:55;8.32;;;2.15;;
41293;SDS011;27037;52.010;4.446;2023-07-29T07:12:21;10.80;;;2.97;;
41293;SDS011;27037;52.010;4.446;2023-07-29T07:14:47;8.50;;;2.40;;
41293;SDS011;27037;52.010;4.446;2023-07-29T07:17:13;8.82;;;2.08;;
41293;SDS011;27037;52.010;4.446;2023-07-29T07:19:38;6.95;;;2.10;;
41293;SDS011;27037;52.010;4.446;2023-07-29T07:22:04;11.65;;;2.30;;
41293;SDS011;27037;52.010;4.446;2023-07-29T07:24:30;5.07;;;1.90;;
41293;SDS011;27037;52.010;4.446;2023-07-29T07:26:56;6.88;;;1.95;;
41293;SDS011;27037;52.010;4.446;2023-07-29T07:29:21;8.75;;;2.00;;
41293;SDS011;27037;52.010;4.446;2023-07-29T07:31:51;12.35;;;2.33;;
41293;SDS011;27037;52.010;4.446;2023-07-29T07:34:19;10.68;;;2.20;;
41293;SDS011;27037;52.010;4.446;2023-07-29T07:36:45;6.47;;;1.88;;
41293;SDS011;27037;52.010;4.446;2023-07-29T07:39:11;6.78;;;2.40;;
41293;SDS011;27037;52.010;4.446;2023-07-29T07:41:36;10.93;;;2.35;;
41293;SDS011;27037;52.010;4.446;2023-07-29T07:44:02;13.13;;;2.20;;
41293;SDS011;27037;52.010;4.446;2023-07-29T07:46:28;6.43;;;1.88;;
41293;SDS011;27037;52.010;4.446;2023-07-29T07:48:54;6.72;;;2.10;;
41293;SDS011;27037;52.010;4.446;2023-07-29T07:51:19;6.30;;;2.10;;
41293;SDS011;27037;52.010;4.446;2023-07-29T07:53:45;8.40;;;2.42;;
41293;SDS011;27037;52.010;4.446;2023-07-29T07:56:11;9.27;;;1.95;;
41293;SDS011;27037;52.010;4.446;2023-07-29T07:58:37;8.15;;;2.03;;
41293;SDS011;27037;52.010;4.446;2023-07-29T08:01:04;8.77;;;2.20;;
41293;SDS011;27037;52.010;4.446;2023-07-29T08:03:31;7.28;;;2.08;;
41293;SDS011;27037;52.010;4.446;2023-07-29T08:05:56;4.60;;;1.92;;
41293;SDS011;27037;52.010;4.446;2023-07-29T08:08:22;5.93;;;1.80;;
41293;SDS011;27037;52.010;4.446;2023-07-29T08:10:48;5.32;;;1.80;;
41293;SDS011;27037;52.010;4.446;2023-07-29T08:13:14;9.27;;;2.00;;
41293;SDS011;27037;52.010;4.446;2023-07-29T08:15:39;4.43;;;1.80;;
41293;SDS011;27037;52.010;4.446;2023-07-29T08:18:06;3.13;;;1.52;;
41293;SDS011;27037;52.010;4.446;2023-07-29T08:20:32;4.95;;;1.98;;
41293;SDS011;27037;52.010;4.446;2023-07-29T08:22:58;5.13;;;1.80;;
41293;SDS011;27037;52.010;4.446;2023-07-29T08:25:23;5.85;;;1.80;;
41293;SDS011;27037;52.010;4.446;2023-07-29T08:27:49;4.00;;;1.88;;
41293;SDS011;27037;52.010;4.446;2023-07-29T08:30:15;6.20;;;2.10;;
41293;SDS011;27037;52.010;4.446;2023-07-29T08:32:41;7.00;;;2.00;;
41293;SDS011;27037;52.010;4.446;2023-07-29T08:35:07;11.77;;;2.30;;
41293;SDS011;27037;52.010;4.446;2023-07-29T08:37:33;6.22;;;2.10;;
41293;SDS011;27037;52.010;4.446;2023-07-29T08:39:58;7.22;;;2.22;;
41293;SDS011;27037;52.010;4.446;2023-07-29T08:42:27;4.22;;;1.92;;
41293;SDS011;27037;52.010;4.446;2023-07-29T08:44:56;5.93;;;2.30;;
41293;SDS011;27037;52.010;4.446;2023-07-29T08:47:24;9.13;;;2.30;;
41293;SDS011;27037;52.010;4.446;2023-07-29T08:49:50;6.47;;;2.38;;
41293;SDS011;27037;52.010;4.446;2023-07-29T08:52:17;8.75;;;2.50;;
41293;SDS011;27037;52.010;4.446;2023-07-29T08:54:43;11.75;;;2.88;;
41293;SDS011;27037;52.010;4.446;2023-07-29T08:57:09;6.72;;;2.60;;
41293;SDS011;27037;52.010;4.446;2023-07-29T08:59:49;7.25;;;2.70;;
41293;SDS011;27037;52.010;4.446;2023-07-29T09:02:15;7.38;;;2.60;;
41293;SDS011;27037;52.010;4.446;2023-07-29T09:04:41;7.43;;;2.78;;
41293;SDS011;27037;52.010;4.446;2023-07-29T09:07:07;7.78;;;3.00;;
41293;SDS011;27037;52.010;4.446;2023-07-29T09:09:34;6.82;;;3.03;;
41293;SDS011;27037;52.010;4.446;2023-07-29T09:12:00;8.95;;;3.55;;
41293;SDS011;27037;52.010;4.446;2023-07-29T09:14:26;7.60;;;3.30;;
41293;SDS011;27037;52.010;4.446;2023-07-29T09:16:53;5.60;;;2.55;;
41293;SDS011;27037;52.010;4.446;2023-07-29T09:19:18;7.85;;;2.90;;
41293;SDS011;27037;52.010;4.446;2023-07-29T09:21:45;7.28;;;2.67;;
41293;SDS011;27037;52.010;4.446;2023-07-29T09:24:12;5.85;;;2.72;;
41293;SDS011;27037;52.010;4.446;2023-07-29T09:26:40;6.50;;;2.95;;
41293;SDS011;27037;52.010;4.446;2023-07-29T09:29:14;7.07;;;2.83;;
41293;SDS011;27037;52.010;4.446;2023-07-29T09:31:40;6.18;;;2.83;;
41293;SDS011;27037;52.010;4.446;2023-07-29T09:34:05;7.03;;;2.85;;
41293;SDS011;27037;52.010;4.446;2023-07-29T09:36:31;5.55;;;2.65;;
41293;SDS011;27037;52.010;4.446;2023-07-29T09:38:58;6.75;;;2.90;;
41293;SDS011;27037;52.010;4.446;2023-07-29T09:41:24;5.18;;;2.88;;
41293;SDS011;27037;52.010;4.446;2023-07-29T09:43:58;6.45;;;2.33;;
41293;SDS011;27037;52.010;4.446;2023-07-29T09:46:27;5.80;;;2.63;;
41293;SDS011;27037;52.010;4.446;2023-07-29T09:49:01;6.80;;;2.22;;
41293;SDS011;27037;52.010;4.446;2023-07-29T09:51:31;5.93;;;2.00;;
41293;SDS011;27037;52.010;4.446;2023-07-29T09:53:56;7.53;;;2.53;;
41293;SDS011;27037;52.010;4.446;2023-07-29T09:56:24;6.60;;;1.73;;
41293;SDS011;27037;52.010;4.446;2023-07-29T09:58:57;3.83;;;1.90;;
41293;SDS011;27037;52.010;4.446;2023-07-29T10:01:23;4.20;;;2.10;;
41293;SDS011;27037;52.010;4.446;2023-07-29T10:03:49;6.50;;;2.00;;
41293;SDS011;27037;52.010;4.446;2023-07-29T10:06:15;5.60;;;2.08;;
41293;SDS011;27037;52.010;4.446;2023-07-29T10:08:42;3.20;;;1.80;;
41293;SDS011;27037;52.010;4.446;2023-07-29T10:11:08;4.38;;;1.73;;
41293;SDS011;27037;52.010;4.446;2023-07-29T10:13:35;3.95;;;1.83;;
41293;SDS011;27037;52.010;4.446;2023-07-29T10:16:02;2.72;;;1.52;;
41293;SDS011;27037;52.010;4.446;2023-07-29T10:18:29;5.88;;;1.60;;
41293;SDS011;27037;52.010;4.446;2023-07-29T10:20:56;3.78;;;1.42;;
41293;SDS011;27037;52.010;4.446;2023-07-29T10:23:25;3.55;;;1.35;;
41293;SDS011;27037;52.010;4.446;2023-07-29T10:25:54;2.85;;;1.00;;
41293;SDS011;27037;52.010;4.446;2023-07-29T10:28:31;4.85;;;1.38;;
41293;SDS011;27037;52.010;4.446;2023-07-29T10:30:58;2.20;;;1.10;;
41293;SDS011;27037;52.010;4.446;2023-07-29T10:33:24;5.47;;;1.30;;
41293;SDS011;27037;52.010;4.446;2023-07-29T10:35:50;4.35;;;1.00;;
41293;SDS011;27037;52.010;4.446;2023-07-29T10:38:17;3.22;;;0.95;;
41293;SDS011;27037;52.010;4.446;2023-07-29T10:40:47;5.13;;;1.05;;
41293;SDS011;27037;52.010;4.446;2023-07-29T10:43:25;1.73;;;0.80;;
41293;SDS011;27037;52.010;4.446;2023-07-29T10:45:52;2.90;;;1.25;;
41293;SDS011;27037;52.010;4.446;2023-07-29T10:53:47;3.35;;;1.67;;
41293;SDS011;27037;52.010;4.446;2023-07-29T10:56:12;3.25;;;1.70;;
41293;SDS011;27037;52.010;4.446;2023-07-29T10:58:49;3.60;;;1.55;;
41293;SDS011;27037;52.010;4.446;2023-07-29T11:01:21;2.63;;;1.80;;
41293;SDS011;27037;52.010;4.446;2023-07-29T11:17:56;5.30;;;2.10;;
41293;SDS011;27037;52.010;4.446;2023-07-29T11:20:27;4.82;;;2.30;;
41293;SDS011;27037;52.010;4.446;2023-07-29T11:22:54;3.28;;;2.13;;
41293;SDS011;27037;52.010;4.446;2023-07-29T11:25:21;6.50;;;2.50;;
41293;SDS011;27037;52.010;4.446;2023-07-29T11:27:48;3.50;;;2.25;;
41293;SDS011;27037;52.010;4.446;2023-07-29T11:30:16;5.40;;;2.70;;
41293;SDS011;27037;52.010;4.446;2023-07-29T11:32:43;3.40;;;2.47;;
41293;SDS011;27037;52.010;4.446;2023-07-29T11:35:13;3.92;;;2.30;;
41293;SDS011;27037;52.010;4.446;2023-07-29T11:37:44;5.60;;;2.22;;
41293;SDS011;27037;52.010;4.446;2023-07-29T11:40:14;7.00;;;1.90;;
41293;SDS011;27037;52.010;4.446;2023-07-29T11:42:45;7.07;;;2.03;;
41293;SDS011;27037;52.010;4.446;2023-07-29T11:45:12;3.40;;;1.90;;
41293;SDS011;27037;52.010;4.446;2023-07-29T11:47:38;2.60;;;1.90;;
41293;SDS011;27037;52.010;4.446;2023-07-29T11:50:04;6.28;;;2.75;;
41293;SDS011;27037;52.010;4.446;2023-07-29T11:52:34;4.93;;;1.90;;
41293;SDS011;27037;52.010;4.446;2023-07-29T11:55:01;7.13;;;2.20;;
41293;SDS011;27037;52.010;4.446;2023-07-29T11:57:28;4.93;;;2.25;;
41293;SDS011;27037;52.010;4.446;2023-07-29T11:59:54;4.70;;;2.38;;
41293;SDS011;27037;52.010;4.446;2023-07-29T12:02:20;6.43;;;2.67;;
41293;SDS011;27037;52.010;4.446;2023-07-29T12:04:47;3.65;;;2.20;;
41293;SDS011;27037;52.010;4.446;2023-07-29T12:07:13;6.68;;;2.63;;
41293;SDS011;27037;52.010;4.446;2023-07-29T12:09:43;4.82;;;2.40;;
41293;SDS011;27037;52.010;4.446;2023-07-29T12:12:11;6.28;;;2.10;;
41293;SDS011;27037;52.010;4.446;2023-07-29T12:14:37;3.22;;;1.92;;
41293;SDS011;27037;52.010;4.446;2023-07-29T12:17:03;8.65;;;2.20;;
41293;SDS011;27037;52.010;4.446;2023-07-29T12:19:37;5.97;;;2.15;;
41293;SDS011;27037;52.010;4.446;2023-07-29T12:22:04;5.78;;;2.00;;
41293;SDS011;27037;52.010;4.446;2023-07-29T12:24:32;5.50;;;2.00;;
41293;SDS011;27037;52.010;4.446;2023-07-29T12:26:58;4.10;;;1.90;;
41293;SDS011;27037;52.010;4.446;2023-07-29T12:29:25;4.40;;;1.73;;
41293;SDS011;27037;52.010;4.446;2023-07-29T12:32:03;4.68;;;1.77;;
41293;SDS011;27037;52.010;4.446;2023-07-29T12:34:30;6.57;;;1.88;;
41293;SDS011;27037;52.010;4.446;2023-07-29T12:36:57;7.72;;;2.10;;
41293;SDS011;27037;52.010;4.446;2023-07-29T12:39:24;8.15;;;2.03;;
41293;SDS011;27037;52.010;4.446;2023-07-29T12:41:56;6.82;;;2.00;;
41293;SDS011;27037;52.010;4.446;2023-07-29T12:44:23;6.18;;;1.60;;
41293;SDS011;27037;52.010;4.446;2023-07-29T12:46:50;3.47;;;1.60;;
41293;SDS011;27037;52.010;4.446;2023-07-29T12:49:16;5.53;;;1.90;;
41293;SDS011;27037;52.010;4.446;2023-07-29T12:51:42;5.18;;;1.77;;
41293;SDS011;27037;52.010;4.446;2023-07-29T12:54:08;7.57;;;1.75;;
41293;SDS011;27037;52.010;4.446;2023-07-29T12:56:34;4.97;;;1.63;;
41293;SDS011;27037;52.010;4.446;2023-07-29T12:59:00;2.45;;;1.25;;
41293;SDS011;27037;52.010;4.446;2023-07-29T13:01:26;6.50;;;1.83;;
41293;SDS011;27037;52.010;4.446;2023-07-29T13:03:53;4.28;;;1.70;;
41293;SDS011;27037;52.010;4.446;2023-07-29T13:06:19;7.10;;;2.08;;
41293;SDS011;27037;52.010;4.446;2023-07-29T13:08:46;4.03;;;1.70;;
41293;SDS011;27037;52.010;4.446;2023-07-29T13:11:12;3.97;;;1.63;;
41293;SDS011;27037;52.010;4.446;2023-07-29T13:13:39;8.65;;;2.00;;
41293;SDS011;27037;52.010;4.446;2023-07-29T13:16:05;7.05;;;1.92;;
41293;SDS011;27037;52.010;4.446;2023-07-29T13:18:31;3.58;;;1.70;;
41293;SDS011;27037;52.010;4.446;2023-07-29T13:20:57;3.95;;;1.80;;
41293;SDS011;27037;52.010;4.446;2023-07-29T13:23:23;3.08;;;1.67;;
41293;SDS011;27037;52.010;4.446;2023-07-29T13:25:49;6.63;;;1.80;;
41293;SDS011;27037;52.010;4.446;2023-07-29T13:28:15;5.20;;;1.83;;
41293;SDS011;27037;52.010;4.446;2023-07-29T13:30:41;5.60;;;1.90;;
41293;SDS011;27037;52.010;4.446;2023-07-29T13:33:07;3.17;;;1.42;;
41293;SDS011;27037;52.010;4.446;2023-07-29T13:35:33;5.30;;;1.50;;
41293;SDS011;27037;52.010;4.446;2023-07-29T13:37:59;4.93;;;1.73;;
41293;SDS011;27037;52.010;4.446;2023-07-29T13:40:25;5.72;;;1.52;;
41293;SDS011;27037;52.010;4.446;2023-07-29T13:42:50;4.22;;;1.67;;
41293;SDS011;27037;52.010;4.446;2023-07-29T13:45:17;4.57;;;1.80;;
41293;SDS011;27037;52.010;4.446;2023-07-29T13:47:43;4.35;;;1.33;;
41293;SDS011;27037;52.010;4.446;2023-07-29T13:50:09;3.63;;;1.35;;
41293;SDS011;27037;52.010;4.446;2023-07-29T13:52:35;3.58;;;1.48;;
41293;SDS011;27037;52.010;4.446;2023-07-29T13:55:02;3.65;;;1.38;;
41293;SDS011;27037;52.010;4.446;2023-07-29T13:57:28;5.45;;;1.73;;
41293;SDS011;27037;52.010;4.446;2023-07-29T13:59:54;2.67;;;1.45;;
41293;SDS011;27037;52.010;4.446;2023-07-29T14:02:19;5.18;;;1.63;;
41293;SDS011;27037;52.010;4.446;2023-07-29T14:04:45;6.82;;;1.65;;
41293;SDS011;27037;52.010;4.446;2023-07-29T14:07:10;3.17;;;1.52;;
41293;SDS011;27037;52.010;4.446;2023-07-29T14:09:36;3.85;;;1.33;;
41293;SDS011;27037;52.010;4.446;2023-07-29T14:12:03;4.90;;;1.50;;
41293;SDS011;27037;52.010;4.446;2023-07-29T14:14:29;4.13;;;1.50;;
41293;SDS011;27037;52.010;4.446;2023-07-29T14:16:55;5.70;;;1.88;;
41293;SDS011;27037;52.010;4.446;2023-07-29T14:19:21;4.43;;;1.52;;
41293;SDS011;27037;52.010;4.446;2023-07-29T14:21:48;2.83;;;1.40;;
41293;SDS011;27037;52.010;4.446;2023-07-29T14:24:13;6.30;;;1.75;;
41293;SDS011;27037;52.010;4.446;2023-07-29T14:26:40;5.70;;;1.58;;
41293;SDS011;27037;52.010;4.446;2023-07-29T14:29:06;3.47;;;1.60;;
41293;SDS011;27037;52.010;4.446;2023-07-29T14:31:32;3.03;;;1.45;;
41293;SDS011;27037;52.010;4.446;2023-07-29T14:33:57;6.72;;;1.50;;
41293;SDS011;27037;52.010;4.446;2023-07-29T14:36:24;7.05;;;1.52;;
41293;SDS011;27037;52.010;4.446;2023-07-29T14:38:50;5.45;;;1.85;;
41293;SDS011;27037;52.010;4.446;2023-07-29T14:41:16;6.20;;;1.90;;
41293;SDS011;27037;52.010;4.446;2023-07-29T14:43:41;3.50;;;1.50;;
41293;SDS011;27037;52.010;4.446;2023-07-29T14:46:07;5.65;;;1.98;;
41293;SDS011;27037;52.010;4.446;2023-07-29T14:48:33;4.75;;;1.83;;
41293;SDS011;27037;52.010;4.446;2023-07-29T14:50:58;5.53;;;2.10;;
41293;SDS011;27037;52.010;4.446;2023-07-29T14:53:24;6.63;;;2.10;;
41293;SDS011;27037;52.010;4.446;2023-07-29T14:55:50;5.50;;;1.90;;
41293;SDS011;27037;52.010;4.446;2023-07-29T14:58:16;4.38;;;2.00;;
41293;SDS011;27037;52.010;4.446;2023-07-29T15:00:42;7.88;;;1.92;;
41293;SDS011;27037;52.010;4.446;2023-07-29T15:03:07;6.60;;;1.90;;